PWSweather.com
Personal Weather Stations
Station Observations
KCTHAMDEN
Dunbar Hill, Hamden, CT 06514

Dunbar HillHamden, CT 06514

Lat: 41.365437, Lon: -72.956532

Elevation: 200

Station Type: Davis Vantage Pro2+

www.hamdenweather.com

High Low Average
Temperature 32.0°F0.0°F 15.4°F-9.2°F 23.5°F-4.7°F
Dew Point 18.1°F-7.7°F 11.2°F-11.6°F 14.8°F-9.6°F
Winds 6.1 mph NNE9.8 mph NNE Calm Calm 1.5 mph 2.4 mph
Wind Gusts 14.0 mph22.5 mph -- 4.1 mph6.6 mph
Humidity 85% 53% 70%
Pressure 30.12 in1020.00 in 29.90 in1012.50 in -
Precipitation 0.00 in0.00 in - -
Hour Temp Dew Point Humidity Winds Wind Gusts Pressure Precip Precip Rate Daily Precip Total
12:00 AM 20.6°F-6.3°C 14.2°F-9.9°C 76% 2.9 mph WSW4.7 kmh WSW 8.0 mph12.9 kmh 30.12 in1020.0 mb - 0.00 in0.0 mm 0.00 in0.0 mm
12:15 AM 20.2°F-6.6°C 14.1°F-9.9°C 77% 1.6 mph NE2.6 kmh NE 4.0 mph6.4 kmh 30.12 in1020.0 mb - 0.00 in0.0 mm 0.00 in0.0 mm
12:30 AM 19.8°F-6.8°C 13.8°F-10.1°C 77% 0.8 mph N1.3 kmh N 1.0 mph1.6 kmh 30.11 in1019.6 mb - 0.00 in0.0 mm 0.00 in0.0 mm
12:45 AM 19.5°F-6.9°C 13.5°F-10.3°C 77% 2.1 mph WNW3.4 kmh WNW 4.0 mph6.4 kmh 30.11 in1019.6 mb - 0.00 in0.0 mm 0.00 in0.0 mm
01:00 AM 19.4°F-7.0°C 13.4°F-10.3°C 77% 1.2 mph WSW1.9 kmh WSW 2.0 mph3.2 kmh 30.11 in1019.6 mb - 0.00 in0.0 mm 0.00 in0.0 mm
01:30 AM 18.7°F-7.4°C 13.0°F-10.6°C 78% 0.8 mph WSW1.3 kmh WSW 8.0 mph12.9 kmh 30.11 in1019.6 mb - 0.00 in0.0 mm 0.00 in0.0 mm
01:45 AM 18.5°F-7.5°C 12.8°F-10.7°C 78% 0.4 mph WSW0.6 kmh WSW 8.0 mph12.9 kmh 30.12 in1020.0 mb - 0.00 in0.0 mm 0.00 in0.0 mm
02:00 AM 18.2°F-7.7°C 12.5°F-10.8°C 78% 1.2 mph WSW1.9 kmh WSW 2.0 mph3.2 kmh 30.11 in1019.6 mb - 0.00 in0.0 mm 0.00 in0.0 mm
02:15 AM 17.9°F-7.8°C 12.5°F-10.8°C 79% 0.8 mph N1.3 kmh N 1.0 mph1.6 kmh 30.10 in1019.3 mb - 0.00 in0.0 mm 0.00 in0.0 mm
02:30 AM 17.6°F-8.0°C 12.2°F-11.0°C 79% 0.4 mph N0.6 kmh N 1.0 mph1.6 kmh 30.10 in1019.3 mb - 0.00 in0.0 mm 0.00 in0.0 mm
02:45 AM 17.4°F-8.1°C 12.0°F-11.1°C 79% 5.0 mph WSW8.0 kmh WSW 9.0 mph14.5 kmh 30.09 in1019.0 mb - 0.00 in0.0 mm 0.00 in0.0 mm
03:00 AM 17.4°F-8.1°C 12.0°F-11.1°C 79% 0.4 mph N0.6 kmh N 1.0 mph1.6 kmh 30.09 in1019.0 mb - 0.00 in0.0 mm 0.00 in0.0 mm
03:15 AM 17.3°F-8.2°C 11.6°F-11.3°C 78% 1.6 mph NNW2.6 kmh NNW 10.0 mph16.1 kmh 30.08 in1018.6 mb - 0.00 in0.0 mm 0.00 in0.0 mm
03:30 AM 17.4°F-8.1°C 11.7°F-11.3°C 78% 2.0 mph W3.2 kmh W 8.0 mph12.9 kmh 30.07 in1018.3 mb - 0.00 in0.0 mm 0.00 in0.0 mm
03:45 AM 17.6°F-8.0°C 11.6°F-11.3°C 77% 0.5 mph N0.8 kmh N 2.0 mph3.2 kmh 30.06 in1017.9 mb - 0.00 in0.0 mm 0.00 in0.0 mm
04:00 AM 17.7°F-7.9°C 11.7°F-11.3°C 77% 1.2 mph W1.9 kmh W 2.0 mph3.2 kmh 30.05 in1017.6 mb - 0.00 in0.0 mm 0.00 in0.0 mm
04:15 AM 17.7°F-7.9°C 11.7°F-11.3°C 77% 2.9 mph SW4.7 kmh SW 4.0 mph6.4 kmh 30.04 in1017.3 mb - 0.00 in0.0 mm 0.00 in0.0 mm
04:30 AM 17.6°F-8.0°C 11.3°F-11.5°C 76% 1.6 mph NNW2.6 kmh NNW 1.0 mph1.6 kmh 30.04 in1017.3 mb - 0.00 in0.0 mm 0.00 in0.0 mm
04:45 AM 17.5°F-8.1°C 11.5°F-11.4°C 77% 1.2 mph W1.9 kmh W 8.0 mph12.9 kmh 30.03 in1016.9 mb - 0.00 in0.0 mm 0.00 in0.0 mm
05:00 AM 17.3°F-8.2°C 11.3°F-11.5°C 77% 0.4 mph N0.6 kmh N 1.0 mph1.6 kmh 30.02 in1016.6 mb - 0.00 in0.0 mm 0.00 in0.0 mm
05:15 AM 17.2°F-8.2°C 11.2°F-11.6°C 77% 3.0 mph N4.8 kmh N 11.0 mph17.7 kmh 30.02 in1016.6 mb - 0.00 in0.0 mm 0.00 in0.0 mm
05:30 AM 17.3°F-8.2°C 11.3°F-11.5°C 77% 0.3 mph N0.5 kmh N 1.0 mph1.6 kmh 30.02 in1016.6 mb - 0.00 in0.0 mm 0.00 in0.0 mm
05:45 AM 17.2°F-8.2°C 11.5°F-11.4°C 78% Calm Calm 1.0 mph1.6 kmh 30.02 in1016.6 mb - 0.00 in0.0 mm 0.00 in0.0 mm
06:00 AM 17.0°F-8.3°C 11.6°F-11.3°C 79% 0.1 mph NNE0.2 kmh NNE 1.0 mph1.6 kmh 30.02 in1016.6 mb - 0.00 in0.0 mm 0.00 in0.0 mm
06:15 AM 16.6°F-8.6°C 11.5°F-11.4°C 80% 0.6 mph N1.0 kmh N 1.0 mph1.6 kmh 30.02 in1016.6 mb - 0.00 in0.0 mm 0.00 in0.0 mm
06:30 AM 16.4°F-8.7°C 11.3°F-11.5°C 80% Calm Calm 1.0 mph1.6 kmh 30.02 in1016.6 mb - 0.00 in0.0 mm 0.00 in0.0 mm
06:45 AM 16.3°F-8.7°C 11.5°F-11.4°C 81% 0.1 mph WSW0.2 kmh WSW 1.0 mph1.6 kmh 30.04 in1017.3 mb - 0.00 in0.0 mm 0.00 in0.0 mm
07:00 AM 16.0°F-8.9°C 11.5°F-11.4°C 82% 0.2 mph WSW0.3 kmh WSW 1.0 mph1.6 kmh 30.05 in1017.6 mb - 0.00 in0.0 mm 0.00 in0.0 mm
07:15 AM 15.6°F-9.1°C 11.4°F-11.4°C 83% 0.1 mph WSW0.2 kmh WSW 1.0 mph1.6 kmh 30.05 in1017.6 mb - 0.00 in0.0 mm 0.00 in0.0 mm
07:30 AM 15.4°F-9.2°C 11.4°F-11.4°C 84% 0.2 mph WSW0.3 kmh WSW 1.0 mph1.6 kmh 30.05 in1017.6 mb - 0.00 in0.0 mm 0.00 in0.0 mm
07:45 AM 15.5°F-9.2°C 11.8°F-11.2°C 85% 0.4 mph WSW0.6 kmh WSW 1.0 mph1.6 kmh 30.04 in1017.3 mb - 0.00 in0.0 mm 0.00 in0.0 mm
08:00 AM 16.0°F-8.9°C 12.0°F-11.1°C 84% 0.6 mph WNW1.0 kmh WNW 3.0 mph4.8 kmh 30.04 in1017.3 mb - 0.00 in0.0 mm 0.00 in0.0 mm
08:15 AM 16.7°F-8.5°C 12.4°F-10.9°C 83% 2.3 mph WSW3.7 kmh WSW 6.0 mph9.7 kmh 30.02 in1016.6 mb - 0.00 in0.0 mm 0.00 in0.0 mm
08:30 AM 17.7°F-7.9°C 12.9°F-10.6°C 81% 3.7 mph N6.0 kmh N 8.0 mph12.9 kmh 30.02 in1016.6 mb - 0.00 in0.0 mm 0.00 in0.0 mm
08:45 AM 19.1°F-7.2°C 14.3°F-9.8°C 81% 0.8 mph NW1.3 kmh NW 3.0 mph4.8 kmh 30.03 in1016.9 mb - 0.00 in0.0 mm 0.00 in0.0 mm
09:00 AM 20.8°F-6.2°C 14.5°F-9.7°C 76% 0.5 mph SSW0.8 kmh SSW 2.0 mph3.2 kmh 30.03 in1016.9 mb - 0.00 in0.0 mm 0.00 in0.0 mm
09:15 AM 22.4°F-5.3°C 15.1°F-9.4°C 73% 0.4 mph SW0.6 kmh SW 1.0 mph1.6 kmh 30.03 in1016.9 mb - 0.00 in0.0 mm 0.00 in0.0 mm
09:30 AM 24.1°F-4.4°C 15.4°F-9.2°C 69% 0.7 mph W1.1 kmh W 8.0 mph12.9 kmh 30.02 in1016.6 mb - 0.00 in0.0 mm 0.00 in0.0 mm
09:45 AM 25.6°F-3.6°C 15.5°F-9.2°C 65% 5.0 mph WNW8.0 kmh WNW 7.0 mph11.3 kmh 30.02 in1016.6 mb - 0.00 in0.0 mm 0.00 in0.0 mm
10:00 AM 26.1°F-3.3°C 15.2°F-9.3°C 63% 5.0 mph WSW8.0 kmh WSW 10.0 mph16.1 kmh 30.02 in1016.6 mb - 0.00 in0.0 mm 0.00 in0.0 mm
10:15 AM 27.1°F-2.7°C 16.5°F-8.6°C 64% 1.4 mph WSW2.3 kmh WSW 8.0 mph12.9 kmh 30.03 in1016.9 mb - 0.00 in0.0 mm 0.00 in0.0 mm
10:30 AM 27.8°F-2.3°C 16.5°F-8.6°C 62% 3.9 mph NNE6.3 kmh NNE 9.0 mph14.5 kmh 30.03 in1016.9 mb - 0.00 in0.0 mm 0.00 in0.0 mm
10:45 AM 28.1°F-2.2°C 16.8°F-8.4°C 62% 1.0 mph SW1.6 kmh SW 1.0 mph1.6 kmh 30.03 in1016.9 mb - 0.00 in0.0 mm 0.00 in0.0 mm
11:00 AM 29.1°F-1.6°C 17.3°F-8.2°C 61% 2.2 mph WSW3.5 kmh WSW 9.0 mph14.5 kmh 30.01 in1016.3 mb - 0.00 in0.0 mm 0.00 in0.0 mm
11:15 AM 30.1°F-1.1°C 17.5°F-8.1°C 59% 5.0 mph NW8.0 kmh NW 12.0 mph19.3 kmh 30.00 in1015.9 mb - 0.00 in0.0 mm 0.00 in0.0 mm
11:30 AM 30.2°F-1.0°C 16.0°F-8.9°C 55% 5.6 mph WSW9.0 kmh WSW 14.0 mph22.5 kmh 29.98 in1015.2 mb - 0.00 in0.0 mm 0.00 in0.0 mm
11:45 AM 30.7°F-0.7°C 16.8°F-8.4°C 56% 2.7 mph W4.3 kmh W 8.0 mph12.9 kmh 29.98 in1015.2 mb - 0.00 in0.0 mm 0.00 in0.0 mm
12:00 PM 31.4°F-0.3°C 16.7°F-8.5°C 54% 1.9 mph NE3.1 kmh NE 7.0 mph11.3 kmh 29.97 in1014.9 mb - 0.00 in0.0 mm 0.00 in0.0 mm
12:15 PM 31.5°F-0.3°C 16.7°F-8.5°C 54% 2.3 mph NE3.7 kmh NE 3.0 mph4.8 kmh 29.95 in1014.2 mb - 0.00 in0.0 mm 0.00 in0.0 mm
12:30 PM 31.5°F-0.3°C 17.2°F-8.2°C 55% 2.2 mph ENE3.5 kmh ENE 6.0 mph9.7 kmh 29.94 in1013.9 mb - 0.00 in0.0 mm 0.00 in0.0 mm
12:45 PM 31.3°F-0.4°C 16.6°F-8.6°C 54% 2.3 mph WSW3.7 kmh WSW 8.0 mph12.9 kmh 29.93 in1013.5 mb - 0.00 in0.0 mm 0.00 in0.0 mm
01:00 PM 31.3°F-0.4°C 17.9°F-7.8°C 57% 1.8 mph W2.9 kmh W 6.0 mph9.7 kmh 29.93 in1013.5 mb - 0.00 in0.0 mm 0.00 in0.0 mm
01:15 PM 31.6°F-0.2°C 18.1°F-7.7°C 57% 1.4 mph N2.3 kmh N 7.0 mph11.3 kmh 29.92 in1013.2 mb - 0.00 in0.0 mm 0.00 in0.0 mm
01:30 PM 31.9°F-0.1°C 17.5°F-8.1°C 55% 1.2 mph NNE1.9 kmh NNE 1.0 mph1.6 kmh 29.91 in1012.9 mb - 0.00 in0.0 mm 0.00 in0.0 mm
01:45 PM 32.0°F0.0°C 18.1°F-7.7°C 56% 1.0 mph SW1.6 kmh SW 4.0 mph6.4 kmh 29.91 in1012.9 mb - 0.00 in0.0 mm 0.00 in0.0 mm
02:00 PM 31.8°F-0.1°C 16.6°F-8.6°C 53% 1.1 mph WNW1.8 kmh WNW 4.0 mph6.4 kmh 29.91 in1012.9 mb - 0.00 in0.0 mm 0.00 in0.0 mm
02:15 PM 31.4°F-0.3°C 17.1°F-8.3°C 55% 4.5 mph N7.2 kmh N 9.0 mph14.5 kmh 29.91 in1012.9 mb - 0.00 in0.0 mm 0.00 in0.0 mm
02:30 PM 31.1°F-0.5°C 16.8°F-8.4°C 55% 3.2 mph SSW5.1 kmh SSW 12.0 mph19.3 kmh 29.91 in1012.9 mb - 0.00 in0.0 mm 0.00 in0.0 mm
02:45 PM 30.6°F-0.8°C 16.7°F-8.5°C 56% 2.2 mph W3.5 kmh W 1.0 mph1.6 kmh 29.91 in1012.9 mb - 0.00 in0.0 mm 0.00 in0.0 mm
03:00 PM 30.3°F-0.9°C 16.9°F-8.4°C 57% 1.9 mph WNW3.1 kmh WNW 6.0 mph9.7 kmh 29.90 in1012.5 mb - 0.00 in0.0 mm 0.00 in0.0 mm
03:15 PM 30.2°F-1.0°C 16.3°F-8.7°C 56% 2.9 mph NNE4.7 kmh NNE 10.0 mph16.1 kmh 29.91 in1012.9 mb - 0.00 in0.0 mm 0.00 in0.0 mm
03:30 PM 29.8°F-1.2°C 16.0°F-8.9°C 56% 6.1 mph NNE9.8 kmh NNE 9.0 mph14.5 kmh 29.91 in1012.9 mb - 0.00 in0.0 mm 0.00 in0.0 mm
03:45 PM 29.7°F-1.3°C 15.9°F-8.9°C 56% 3.5 mph SW5.6 kmh SW 9.0 mph14.5 kmh 29.91 in1012.9 mb - 0.00 in0.0 mm 0.00 in0.0 mm
04:00 PM 29.3°F-1.5°C 15.9°F-8.9°C 57% 0.1 mph SW0.2 kmh SW 2.0 mph3.2 kmh 29.92 in1013.2 mb - 0.00 in0.0 mm 0.00 in0.0 mm
04:15 PM 29.0°F-1.7°C 16.1°F-8.8°C 58% 1.0 mph WSW1.6 kmh WSW 5.0 mph8.0 kmh 29.93 in1013.5 mb - 0.00 in0.0 mm 0.00 in0.0 mm
04:30 PM 28.8°F-1.8°C 17.0°F-8.3°C 61% 0.8 mph WSW1.3 kmh WSW 2.0 mph3.2 kmh 29.93 in1013.5 mb - 0.00 in0.0 mm 0.00 in0.0 mm
04:45 PM 28.5°F-1.9°C 16.4°F-8.7°C 60% 5.7 mph W9.2 kmh W 9.0 mph14.5 kmh 29.94 in1013.9 mb - 0.00 in0.0 mm 0.00 in0.0 mm
05:00 PM 28.2°F-2.1°C 16.4°F-8.7°C 61% 0.4 mph W0.6 kmh W 2.0 mph3.2 kmh 29.95 in1014.2 mb - 0.00 in0.0 mm 0.00 in0.0 mm
05:15 PM 27.7°F-2.4°C 16.4°F-8.7°C 62% 0.7 mph ENE1.1 kmh ENE 5.0 mph8.0 kmh 29.95 in1014.2 mb - 0.00 in0.0 mm 0.00 in0.0 mm
05:30 PM 27.4°F-2.6°C 16.4°F-8.7°C 63% 2.3 mph N3.7 kmh N 2.0 mph3.2 kmh 29.96 in1014.6 mb - 0.00 in0.0 mm 0.00 in0.0 mm
05:45 PM 27.0°F-2.8°C 16.5°F-8.6°C 64% 0.1 mph WSW0.2 kmh WSW -- 29.97 in1014.9 mb - 0.00 in0.0 mm 0.00 in0.0 mm
06:00 PM 26.5°F-3.1°C 16.4°F-8.7°C 65% 0.1 mph W0.2 kmh W 1.0 mph1.6 kmh 29.98 in1015.2 mb - 0.00 in0.0 mm 0.00 in0.0 mm
06:15 PM 26.0°F-3.3°C 16.2°F-8.8°C 66% 0.1 mph WSW0.2 kmh WSW -- 29.99 in1015.6 mb - 0.00 in0.0 mm 0.00 in0.0 mm
06:30 PM 25.5°F-3.6°C 16.4°F-8.7°C 68% 0.3 mph W0.5 kmh W 1.0 mph1.6 kmh 30.00 in1015.9 mb - 0.00 in0.0 mm 0.00 in0.0 mm
06:45 PM 25.1°F-3.8°C 16.4°F-8.7°C 69% Calm Calm -- 30.00 in1015.9 mb - 0.00 in0.0 mm 0.00 in0.0 mm
07:00 PM 24.8°F-4.0°C 16.4°F-8.7°C 70% 0.1 mph SW0.2 kmh SW 1.0 mph1.6 kmh 30.01 in1016.3 mb - 0.00 in0.0 mm 0.00 in0.0 mm
07:15 PM 24.6°F-4.1°C 16.2°F-8.8°C 70% 1.4 mph SW2.3 kmh SW 3.0 mph4.8 kmh 30.01 in1016.3 mb - 0.00 in0.0 mm 0.00 in0.0 mm
07:30 PM 24.7°F-4.1°C 16.3°F-8.7°C 70% 2.6 mph SW4.2 kmh SW 5.0 mph8.0 kmh 30.02 in1016.6 mb - 0.00 in0.0 mm 0.00 in0.0 mm
07:45 PM 24.7°F-4.1°C 16.3°F-8.7°C 70% 3.3 mph SW5.3 kmh SW 10.0 mph16.1 kmh 30.03 in1016.9 mb - 0.00 in0.0 mm 0.00 in0.0 mm
08:00 PM 24.5°F-4.2°C 16.1°F-8.8°C 70% 0.2 mph SW0.3 kmh SW 1.0 mph1.6 kmh 30.03 in1016.9 mb - 0.00 in0.0 mm 0.00 in0.0 mm
08:15 PM 24.2°F-4.3°C 16.1°F-8.8°C 71% 0.3 mph SW0.5 kmh SW 1.0 mph1.6 kmh 30.03 in1016.9 mb - 0.00 in0.0 mm 0.00 in0.0 mm
08:30 PM 23.9°F-4.5°C 16.2°F-8.8°C 72% Calm Calm 1.0 mph1.6 kmh 30.04 in1017.3 mb - 0.00 in0.0 mm 0.00 in0.0 mm
08:45 PM 23.5°F-4.7°C 16.1°F-8.8°C 73% Calm Calm -- 30.04 in1017.3 mb - 0.00 in0.0 mm 0.00 in0.0 mm
09:00 PM 23.2°F-4.9°C 15.8°F-9.0°C 73% 0.2 mph WSW0.3 kmh WSW 1.0 mph1.6 kmh 30.05 in1017.6 mb - 0.00 in0.0 mm 0.00 in0.0 mm
09:15 PM 23.0°F-5.0°C 16.0°F-8.9°C 74% 3.3 mph WSW5.3 kmh WSW 6.0 mph9.7 kmh 30.05 in1017.6 mb - 0.00 in0.0 mm 0.00 in0.0 mm
09:30 PM 23.0°F-5.0°C 15.9°F-8.9°C 74% 1.4 mph SSW2.3 kmh SSW 2.0 mph3.2 kmh 30.05 in1017.6 mb - 0.00 in0.0 mm 0.00 in0.0 mm
09:45 PM 22.9°F-5.1°C 15.9°F-8.9°C 74% 1.5 mph NNW2.4 kmh NNW 2.0 mph3.2 kmh 30.06 in1017.9 mb - 0.00 in0.0 mm 0.00 in0.0 mm
10:00 PM 23.0°F-5.0°C 15.9°F-8.9°C 74% 0.7 mph WSW1.1 kmh WSW 1.0 mph1.6 kmh 30.07 in1018.3 mb - 0.00 in0.0 mm 0.00 in0.0 mm
10:15 PM 23.1°F-4.9°C 16.0°F-8.9°C 74% 0.1 mph SW0.2 kmh SW -- 30.07 in1018.3 mb - 0.00 in0.0 mm 0.00 in0.0 mm
10:30 PM 22.9°F-5.1°C 15.8°F-9.0°C 74% Calm Calm 1.0 mph1.6 kmh 30.07 in1018.3 mb - 0.00 in0.0 mm 0.00 in0.0 mm
10:45 PM 22.5°F-5.3°C 15.8°F-9.0°C 75% Calm Calm -- 30.07 in1018.3 mb - 0.00 in0.0 mm 0.00 in0.0 mm
11:00 PM 22.1°F-5.5°C 15.6°F-9.1°C 76% Calm Calm -- 30.06 in1017.9 mb - 0.00 in0.0 mm 0.00 in0.0 mm
11:15 PM 21.8°F-5.7°C 15.7°F-9.1°C 77% 0.6 mph SSW1.0 kmh SSW 2.0 mph3.2 kmh 30.05 in1017.6 mb - 0.00 in0.0 mm 0.00 in0.0 mm
11:30 PM 21.5°F-5.8°C 15.7°F-9.1°C 78% Calm Calm 1.0 mph1.6 kmh 30.05 in1017.6 mb - 0.00 in0.0 mm 0.00 in0.0 mm
11:45 PM 21.6°F-5.8°C 15.8°F-9.0°C 78% 0.3 mph WSW0.5 kmh WSW 1.0 mph1.6 kmh 30.05 in1017.6 mb - 0.00 in0.0 mm 0.00 in0.0 mm